sensor_id;sensor_type;location;lat;lon;timestamp;P1;durP1;ratioP1;P2;durP2;ratioP2
39502;SDS011;26970;49.900;10.774;2022-11-30T00:00:17;41.85;;;23.52;;
39502;SDS011;26970;49.900;10.774;2022-11-30T00:02:44;43.97;;;24.60;;
39502;SDS011;26970;49.900;10.774;2022-11-30T00:05:10;42.88;;;22.42;;
39502;SDS011;26970;49.900;10.774;2022-11-30T00:07:36;39.30;;;22.08;;
39502;SDS011;26970;49.900;10.774;2022-11-30T00:10:02;38.38;;;20.92;;
39502;SDS011;26970;49.900;10.774;2022-11-30T00:12:29;38.90;;;22.58;;
39502;SDS011;26970;49.900;10.774;2022-11-30T00:14:56;37.97;;;21.92;;
39502;SDS011;26970;49.900;10.774;2022-11-30T00:17:21;38.92;;;21.85;;
39502;SDS011;26970;49.900;10.774;2022-11-30T00:19:47;43.42;;;22.40;;
39502;SDS011;26970;49.900;10.774;2022-11-30T00:22:12;40.78;;;21.98;;
39502;SDS011;26970;49.900;10.774;2022-11-30T00:24:38;40.15;;;21.95;;
39502;SDS011;26970;49.900;10.774;2022-11-30T00:27:03;34.15;;;20.00;;
39502;SDS011;26970;49.900;10.774;2022-11-30T00:29:29;36.92;;;20.55;;
39502;SDS011;26970;49.900;10.774;2022-11-30T00:31:55;33.38;;;18.48;;
39502;SDS011;26970;49.900;10.774;2022-11-30T00:34:20;41.05;;;21.73;;
39502;SDS011;26970;49.900;10.774;2022-11-30T00:36:46;39.95;;;21.55;;
39502;SDS011;26970;49.900;10.774;2022-11-30T00:39:11;41.72;;;22.08;;
39502;SDS011;26970;49.900;10.774;2022-11-30T00:41:37;37.05;;;20.27;;
39502;SDS011;26970;49.900;10.774;2022-11-30T00:44:02;41.13;;;22.40;;
39502;SDS011;26970;49.900;10.774;2022-11-30T00:46:28;45.03;;;21.60;;
39502;SDS011;26970;49.900;10.774;2022-11-30T00:48:53;38.63;;;21.15;;
39502;SDS011;26970;49.900;10.774;2022-11-30T00:51:19;40.05;;;20.23;;
39502;SDS011;26970;49.900;10.774;2022-11-30T00:53:45;37.22;;;20.70;;
39502;SDS011;26970;49.900;10.774;2022-11-30T00:56:13;33.50;;;19.08;;
39502;SDS011;26970;49.900;10.774;2022-11-30T00:58:39;35.65;;;21.25;;
39502;SDS011;26970;49.900;10.774;2022-11-30T01:01:05;36.92;;;19.83;;
39502;SDS011;26970;49.900;10.774;2022-11-30T01:03:31;30.60;;;18.60;;
39502;SDS011;26970;49.900;10.774;2022-11-30T01:06:02;28.08;;;17.45;;
39502;SDS011;26970;49.900;10.774;2022-11-30T01:08:28;29.13;;;16.48;;
39502;SDS011;26970;49.900;10.774;2022-11-30T01:10:54;28.98;;;17.70;;
39502;SDS011;26970;49.900;10.774;2022-11-30T01:13:23;27.40;;;17.00;;
39502;SDS011;26970;49.900;10.774;2022-11-30T01:15:48;28.00;;;16.38;;
39502;SDS011;26970;49.900;10.774;2022-11-30T01:18:14;22.40;;;15.02;;
39502;SDS011;26970;49.900;10.774;2022-11-30T01:20:40;22.98;;;13.85;;
39502;SDS011;26970;49.900;10.774;2022-11-30T01:23:07;20.80;;;13.00;;
39502;SDS011;26970;49.900;10.774;2022-11-30T01:25:33;21.40;;;13.98;;
39502;SDS011;26970;49.900;10.774;2022-11-30T01:27:58;18.95;;;12.50;;
39502;SDS011;26970;49.900;10.774;2022-11-30T01:30:24;20.80;;;12.93;;
39502;SDS011;26970;49.900;10.774;2022-11-30T01:32:49;19.65;;;12.10;;
39502;SDS011;26970;49.900;10.774;2022-11-30T01:35:15;18.77;;;11.63;;
39502;SDS011;26970;49.900;10.774;2022-11-30T01:37:40;18.65;;;12.07;;
39502;SDS011;26970;49.900;10.774;2022-11-30T01:40:06;15.48;;;10.82;;
39502;SDS011;26970;49.900;10.774;2022-11-30T01:42:33;17.90;;;11.20;;
39502;SDS011;26970;49.900;10.774;2022-11-30T01:44:59;16.73;;;10.80;;
39502;SDS011;26970;49.900;10.774;2022-11-30T01:47:30;16.55;;;10.43;;
39502;SDS011;26970;49.900;10.774;2022-11-30T01:50:05;17.17;;;10.23;;
39502;SDS011;26970;49.900;10.774;2022-11-30T01:52:36;15.43;;;10.15;;
39502;SDS011;26970;49.900;10.774;2022-11-30T01:55:07;17.17;;;10.73;;
39502;SDS011;26970;49.900;10.774;2022-11-30T02:00:20;15.68;;;10.95;;
39502;SDS011;26970;49.900;10.774;2022-11-30T02:02:55;15.98;;;10.32;;
39502;SDS011;26970;49.900;10.774;2022-11-30T02:05:28;15.55;;;10.45;;
39502;SDS011;26970;49.900;10.774;2022-11-30T02:07:55;17.77;;;11.13;;
39502;SDS011;26970;49.900;10.774;2022-11-30T02:10:22;16.67;;;10.98;;
39502;SDS011;26970;49.900;10.774;2022-11-30T02:19:02;13.70;;;9.45;;
39502;SDS011;26970;49.900;10.774;2022-11-30T02:21:25;14.40;;;9.68;;
39502;SDS011;26970;49.900;10.774;2022-11-30T02:24:34;15.60;;;10.43;;
39502;SDS011;26970;49.900;10.774;2022-11-30T02:27:23;13.80;;;9.45;;
39502;SDS011;26970;49.900;10.774;2022-11-30T02:30:15;14.55;;;9.95;;
39502;SDS011;26970;49.900;10.774;2022-11-30T02:35:24;15.65;;;9.90;;
39502;SDS011;26970;49.900;10.774;2022-11-30T02:37:53;15.32;;;9.73;;
39502;SDS011;26970;49.900;10.774;2022-11-30T02:40:21;15.55;;;9.73;;
39502;SDS011;26970;49.900;10.774;2022-11-30T02:42:47;13.68;;;9.30;;
39502;SDS011;26970;49.900;10.774;2022-11-30T02:45:15;14.07;;;8.73;;
39502;SDS011;26970;49.900;10.774;2022-11-30T02:47:47;14.30;;;9.73;;
39502;SDS011;26970;49.900;10.774;2022-11-30T02:50:40;15.02;;;9.75;;
39502;SDS011;26970;49.900;10.774;2022-11-30T02:53:07;14.77;;;10.13;;
39502;SDS011;26970;49.900;10.774;2022-11-30T02:55:33;17.40;;;10.18;;
39502;SDS011;26970;49.900;10.774;2022-11-30T02:57:59;16.75;;;10.35;;
39502;SDS011;26970;49.900;10.774;2022-11-30T03:00:25;17.05;;;9.93;;
39502;SDS011;26970;49.900;10.774;2022-11-30T03:02:50;14.95;;;9.40;;
39502;SDS011;26970;49.900;10.774;2022-11-30T03:05:16;15.35;;;9.82;;
39502;SDS011;26970;49.900;10.774;2022-11-30T03:07:41;14.35;;;9.55;;
39502;SDS011;26970;49.900;10.774;2022-11-30T03:10:07;16.23;;;10.18;;
39502;SDS011;26970;49.900;10.774;2022-11-30T03:12:34;17.77;;;10.50;;
39502;SDS011;26970;49.900;10.774;2022-11-30T03:14:59;14.23;;;9.27;;
39502;SDS011;26970;49.900;10.774;2022-11-30T03:17:25;14.77;;;9.80;;
39502;SDS011;26970;49.900;10.774;2022-11-30T03:19:50;15.65;;;10.63;;
39502;SDS011;26970;49.900;10.774;2022-11-30T03:22:16;17.35;;;11.23;;
39502;SDS011;26970;49.900;10.774;2022-11-30T03:24:42;14.90;;;9.85;;
39502;SDS011;26970;49.900;10.774;2022-11-30T03:27:07;16.40;;;10.20;;
39502;SDS011;26970;49.900;10.774;2022-11-30T03:29:33;13.88;;;9.38;;
39502;SDS011;26970;49.900;10.774;2022-11-30T03:31:58;15.27;;;10.25;;
39502;SDS011;26970;49.900;10.774;2022-11-30T03:34:24;18.10;;;11.25;;
39502;SDS011;26970;49.900;10.774;2022-11-30T03:36:51;16.40;;;10.52;;
39502;SDS011;26970;49.900;10.774;2022-11-30T03:39:17;17.48;;;11.05;;
39502;SDS011;26970;49.900;10.774;2022-11-30T03:41:42;16.88;;;10.30;;
39502;SDS011;26970;49.900;10.774;2022-11-30T03:44:08;16.58;;;10.52;;
39502;SDS011;26970;49.900;10.774;2022-11-30T03:46:33;16.55;;;9.75;;
39502;SDS011;26970;49.900;10.774;2022-11-30T03:48:59;19.35;;;11.07;;
39502;SDS011;26970;49.900;10.774;2022-11-30T03:51:25;17.02;;;10.23;;
39502;SDS011;26970;49.900;10.774;2022-11-30T03:53:50;16.00;;;10.23;;
39502;SDS011;26970;49.900;10.774;2022-11-30T03:56:16;15.38;;;11.02;;
39502;SDS011;26970;49.900;10.774;2022-11-30T03:58:41;15.90;;;10.05;;
39502;SDS011;26970;49.900;10.774;2022-11-30T04:01:08;16.15;;;10.50;;
39502;SDS011;26970;49.900;10.774;2022-11-30T04:03:36;15.57;;;10.35;;
39502;SDS011;26970;49.900;10.774;2022-11-30T04:06:02;17.65;;;10.90;;
39502;SDS011;26970;49.900;10.774;2022-11-30T04:08:29;15.90;;;10.77;;
39502;SDS011;26970;49.900;10.774;2022-11-30T04:10:55;17.88;;;10.98;;
39502;SDS011;26970;49.900;10.774;2022-11-30T04:13:22;18.05;;;11.10;;
39502;SDS011;26970;49.900;10.774;2022-11-30T04:15:49;16.48;;;10.60;;
39502;SDS011;26970;49.900;10.774;2022-11-30T04:18:16;18.90;;;11.05;;
39502;SDS011;26970;49.900;10.774;2022-11-30T04:20:42;16.15;;;11.27;;
39502;SDS011;26970;49.900;10.774;2022-11-30T04:23:09;17.73;;;11.70;;
39502;SDS011;26970;49.900;10.774;2022-11-30T04:25:41;18.63;;;11.52;;
39502;SDS011;26970;49.900;10.774;2022-11-30T04:28:07;18.13;;;10.68;;
39502;SDS011;26970;49.900;10.774;2022-11-30T04:30:33;19.45;;;11.35;;
39502;SDS011;26970;49.900;10.774;2022-11-30T04:33:00;17.20;;;10.98;;
39502;SDS011;26970;49.900;10.774;2022-11-30T04:35:26;17.80;;;10.95;;
39502;SDS011;26970;49.900;10.774;2022-11-30T04:37:52;18.00;;;11.57;;
39502;SDS011;26970;49.900;10.774;2022-11-30T04:40:17;16.17;;;10.85;;
39502;SDS011;26970;49.900;10.774;2022-11-30T04:42:43;18.65;;;11.65;;
39502;SDS011;26970;49.900;10.774;2022-11-30T04:45:09;18.00;;;10.15;;
39502;SDS011;26970;49.900;10.774;2022-11-30T04:47:35;19.27;;;11.90;;
39502;SDS011;26970;49.900;10.774;2022-11-30T04:50:00;18.08;;;11.35;;
39502;SDS011;26970;49.900;10.774;2022-11-30T04:52:26;19.80;;;11.43;;
39502;SDS011;26970;49.900;10.774;2022-11-30T04:54:52;17.05;;;11.18;;
39502;SDS011;26970;49.900;10.774;2022-11-30T04:57:17;16.38;;;10.93;;
39502;SDS011;26970;49.900;10.774;2022-11-30T04:59:43;17.63;;;11.32;;
39502;SDS011;26970;49.900;10.774;2022-11-30T05:02:09;18.73;;;11.98;;
39502;SDS011;26970;49.900;10.774;2022-11-30T05:04:35;16.23;;;10.48;;
39502;SDS011;26970;49.900;10.774;2022-11-30T05:07:00;18.30;;;11.20;;
39502;SDS011;26970;49.900;10.774;2022-11-30T05:09:26;18.88;;;11.35;;
39502;SDS011;26970;49.900;10.774;2022-11-30T05:11:51;18.60;;;11.30;;
39502;SDS011;26970;49.900;10.774;2022-11-30T05:14:17;17.23;;;10.88;;
39502;SDS011;26970;49.900;10.774;2022-11-30T05:16:45;15.95;;;10.27;;
39502;SDS011;26970;49.900;10.774;2022-11-30T05:19:11;17.60;;;11.60;;
39502;SDS011;26970;49.900;10.774;2022-11-30T05:21:38;18.52;;;11.93;;
39502;SDS011;26970;49.900;10.774;2022-11-30T05:24:04;18.45;;;11.65;;
39502;SDS011;26970;49.900;10.774;2022-11-30T05:26:30;20.48;;;11.63;;
39502;SDS011;26970;49.900;10.774;2022-11-30T05:28:55;16.83;;;11.18;;
39502;SDS011;26970;49.900;10.774;2022-11-30T05:31:21;16.00;;;11.02;;
39502;SDS011;26970;49.900;10.774;2022-11-30T05:33:50;19.30;;;11.85;;
39502;SDS011;26970;49.900;10.774;2022-11-30T05:36:16;15.75;;;10.23;;
39502;SDS011;26970;49.900;10.774;2022-11-30T05:38:42;18.85;;;10.55;;
39502;SDS011;26970;49.900;10.774;2022-11-30T05:41:08;18.25;;;11.25;;
39502;SDS011;26970;49.900;10.774;2022-11-30T05:43:34;18.73;;;11.05;;
39502;SDS011;26970;49.900;10.774;2022-11-30T05:46:00;18.75;;;11.15;;
39502;SDS011;26970;49.900;10.774;2022-11-30T05:48:26;20.25;;;11.65;;
39502;SDS011;26970;49.900;10.774;2022-11-30T05:50:52;19.77;;;11.40;;
39502;SDS011;26970;49.900;10.774;2022-11-30T05:53:18;19.55;;;11.23;;
39502;SDS011;26970;49.900;10.774;2022-11-30T05:55:43;18.10;;;11.40;;
39502;SDS011;26970;49.900;10.774;2022-11-30T05:58:09;19.58;;;11.30;;
39502;SDS011;26970;49.900;10.774;2022-11-30T06:00:34;18.88;;;11.45;;
39502;SDS011;26970;49.900;10.774;2022-11-30T06:03:00;18.52;;;11.15;;
39502;SDS011;26970;49.900;10.774;2022-11-30T06:05:26;20.65;;;12.30;;
39502;SDS011;26970;49.900;10.774;2022-11-30T06:07:51;19.60;;;12.38;;
39502;SDS011;26970;49.900;10.774;2022-11-30T06:10:17;18.35;;;12.10;;
39502;SDS011;26970;49.900;10.774;2022-11-30T06:12:43;18.17;;;11.10;;
39502;SDS011;26970;49.900;10.774;2022-11-30T06:15:09;21.60;;;12.00;;
39502;SDS011;26970;49.900;10.774;2022-11-30T06:17:35;18.85;;;11.35;;
39502;SDS011;26970;49.900;10.774;2022-11-30T06:20:04;17.80;;;11.27;;
39502;SDS011;26970;49.900;10.774;2022-11-30T06:22:31;17.48;;;11.55;;
39502;SDS011;26970;49.900;10.774;2022-11-30T06:24:56;21.63;;;11.98;;
39502;SDS011;26970;49.900;10.774;2022-11-30T06:27:22;24.60;;;12.13;;
39502;SDS011;26970;49.900;10.774;2022-11-30T06:29:47;20.00;;;11.90;;
39502;SDS011;26970;49.900;10.774;2022-11-30T06:32:13;19.63;;;11.65;;
39502;SDS011;26970;49.900;10.774;2022-11-30T06:34:39;19.20;;;11.35;;
39502;SDS011;26970;49.900;10.774;2022-11-30T06:37:04;20.08;;;11.52;;
39502;SDS011;26970;49.900;10.774;2022-11-30T06:39:30;20.17;;;12.02;;
39502;SDS011;26970;49.900;10.774;2022-11-30T06:41:55;17.95;;;11.50;;
39502;SDS011;26970;49.900;10.774;2022-11-30T06:44:21;20.27;;;12.45;;
39502;SDS011;26970;49.900;10.774;2022-11-30T06:46:46;19.67;;;11.82;;
39502;SDS011;26970;49.900;10.774;2022-11-30T06:49:12;22.73;;;12.60;;
39502;SDS011;26970;49.900;10.774;2022-11-30T06:51:37;22.67;;;12.55;;
39502;SDS011;26970;49.900;10.774;2022-11-30T06:54:04;22.70;;;13.02;;
39502;SDS011;26970;49.900;10.774;2022-11-30T06:56:30;22.60;;;13.18;;
39502;SDS011;26970;49.900;10.774;2022-11-30T06:58:56;22.20;;;12.85;;
39502;SDS011;26970;49.900;10.774;2022-11-30T07:01:21;20.42;;;12.27;;
39502;SDS011;26970;49.900;10.774;2022-11-30T07:03:47;23.40;;;13.43;;
39502;SDS011;26970;49.900;10.774;2022-11-30T07:06:13;21.10;;;12.45;;
39502;SDS011;26970;49.900;10.774;2022-11-30T07:08:39;22.02;;;13.07;;
39502;SDS011;26970;49.900;10.774;2022-11-30T07:11:06;21.63;;;12.73;;
39502;SDS011;26970;49.900;10.774;2022-11-30T07:13:32;21.65;;;12.18;;
39502;SDS011;26970;49.900;10.774;2022-11-30T07:15:58;21.33;;;13.07;;
39502;SDS011;26970;49.900;10.774;2022-11-30T07:18:26;23.08;;;13.50;;
39502;SDS011;26970;49.900;10.774;2022-11-30T07:20:51;21.95;;;12.88;;
39502;SDS011;26970;49.900;10.774;2022-11-30T07:23:17;20.80;;;12.30;;
39502;SDS011;26970;49.900;10.774;2022-11-30T07:26:01;21.13;;;13.00;;
39502;SDS011;26970;49.900;10.774;2022-11-30T07:28:30;20.05;;;12.00;;
39502;SDS011;26970;49.900;10.774;2022-11-30T07:30:56;22.38;;;12.68;;
39502;SDS011;26970;49.900;10.774;2022-11-30T07:33:22;24.88;;;13.93;;
39502;SDS011;26970;49.900;10.774;2022-11-30T07:35:47;23.80;;;12.75;;
39502;SDS011;26970;49.900;10.774;2022-11-30T07:38:13;21.40;;;13.75;;
39502;SDS011;26970;49.900;10.774;2022-11-30T07:40:38;22.95;;;12.82;;
39502;SDS011;26970;49.900;10.774;2022-11-30T07:43:04;19.40;;;12.20;;
39502;SDS011;26970;49.900;10.774;2022-11-30T07:45:30;20.90;;;12.52;;
39502;SDS011;26970;49.900;10.774;2022-11-30T07:47:57;22.75;;;12.85;;
39502;SDS011;26970;49.900;10.774;2022-11-30T07:50:23;22.88;;;13.00;;
39502;SDS011;26970;49.900;10.774;2022-11-30T07:52:48;22.10;;;13.15;;
39502;SDS011;26970;49.900;10.774;2022-11-30T07:55:14;21.73;;;12.90;;
39502;SDS011;26970;49.900;10.774;2022-11-30T07:57:40;21.80;;;12.68;;
39502;SDS011;26970;49.900;10.774;2022-11-30T08:00:05;18.75;;;12.45;;
39502;SDS011;26970;49.900;10.774;2022-11-30T08:02:33;21.75;;;12.57;;
39502;SDS011;26970;49.900;10.774;2022-11-30T08:04:58;21.85;;;13.25;;
39502;SDS011;26970;49.900;10.774;2022-11-30T08:07:24;19.25;;;12.25;;
39502;SDS011;26970;49.900;10.774;2022-11-30T08:09:49;19.50;;;12.13;;
39502;SDS011;26970;49.900;10.774;2022-11-30T08:12:15;20.38;;;12.20;;
39502;SDS011;26970;49.900;10.774;2022-11-30T08:14:41;19.75;;;12.98;;
39502;SDS011;26970;49.900;10.774;2022-11-30T08:17:07;21.42;;;13.27;;
39502;SDS011;26970;49.900;10.774;2022-11-30T08:19:33;20.90;;;12.70;;
39502;SDS011;26970;49.900;10.774;2022-11-30T08:21:59;23.15;;;13.32;;
39502;SDS011;26970;49.900;10.774;2022-11-30T08:24:24;22.67;;;13.55;;
39502;SDS011;26970;49.900;10.774;2022-11-30T08:26:50;21.42;;;13.20;;
39502;SDS011;26970;49.900;10.774;2022-11-30T08:29:17;22.67;;;13.27;;
39502;SDS011;26970;49.900;10.774;2022-11-30T08:31:42;23.23;;;12.82;;
39502;SDS011;26970;49.900;10.774;2022-11-30T08:34:09;23.35;;;13.52;;
39502;SDS011;26970;49.900;10.774;2022-11-30T08:36:36;21.58;;;13.05;;
39502;SDS011;26970;49.900;10.774;2022-11-30T08:39:03;22.48;;;12.80;;
39502;SDS011;26970;49.900;10.774;2022-11-30T08:41:30;26.75;;;14.80;;
39502;SDS011;26970;49.900;10.774;2022-11-30T08:43:56;24.65;;;14.23;;
39502;SDS011;26970;49.900;10.774;2022-11-30T08:46:23;21.92;;;13.70;;
39502;SDS011;26970;49.900;10.774;2022-11-30T08:48:49;24.65;;;15.18;;
39502;SDS011;26970;49.900;10.774;2022-11-30T08:51:15;23.75;;;14.48;;
39502;SDS011;26970;49.900;10.774;2022-11-30T08:53:42;22.77;;;13.55;;
39502;SDS011;26970;49.900;10.774;2022-11-30T08:56:15;27.42;;;15.05;;
39502;SDS011;26970;49.900;10.774;2022-11-30T08:58:43;25.05;;;14.43;;
39502;SDS011;26970;49.900;10.774;2022-11-30T09:01:20;25.65;;;14.73;;
39502;SDS011;26970;49.900;10.774;2022-11-30T09:03:49;26.63;;;14.27;;
39502;SDS011;26970;49.900;10.774;2022-11-30T09:06:21;24.58;;;13.80;;
39502;SDS011;26970;49.900;10.774;2022-11-30T09:08:49;36.35;;;15.13;;
39502;SDS011;26970;49.900;10.774;2022-11-30T09:13:53;24.90;;;14.77;;
39502;SDS011;26970;49.900;10.774;2022-11-30T09:16:20;25.88;;;14.25;;
39502;SDS011;26970;49.900;10.774;2022-11-30T09:18:46;22.42;;;13.43;;
39502;SDS011;26970;49.900;10.774;2022-11-30T09:21:14;25.60;;;14.20;;
39502;SDS011;26970;49.900;10.774;2022-11-30T09:23:41;23.20;;;13.52;;
39502;SDS011;26970;49.900;10.774;2022-11-30T09:26:08;24.30;;;13.98;;
39502;SDS011;26970;49.900;10.774;2022-11-30T09:28:35;28.75;;;14.18;;
39502;SDS011;26970;49.900;10.774;2022-11-30T09:31:06;26.20;;;14.63;;
39502;SDS011;26970;49.900;10.774;2022-11-30T09:36:02;23.98;;;14.05;;
39502;SDS011;26970;49.900;10.774;2022-11-30T09:38:30;25.17;;;14.75;;
39502;SDS011;26970;49.900;10.774;2022-11-30T09:40:56;27.02;;;14.75;;
39502;SDS011;26970;49.900;10.774;2022-11-30T09:45:58;27.38;;;14.82;;
39502;SDS011;26970;49.900;10.774;2022-11-30T09:51:13;29.15;;;15.23;;
39502;SDS011;26970;49.900;10.774;2022-11-30T09:53:44;27.38;;;14.70;;
39502;SDS011;26970;49.900;10.774;2022-11-30T09:56:26;29.25;;;14.70;;
39502;SDS011;26970;49.900;10.774;2022-11-30T09:58:55;28.65;;;15.10;;
39502;SDS011;26970;49.900;10.774;2022-11-30T10:01:42;27.80;;;15.48;;
39502;SDS011;26970;49.900;10.774;2022-11-30T10:04:18;30.58;;;15.20;;
39502;SDS011;26970;49.900;10.774;2022-11-30T10:09:50;29.27;;;15.17;;
39502;SDS011;26970;49.900;10.774;2022-11-30T10:12:39;30.65;;;14.82;;
39502;SDS011;26970;49.900;10.774;2022-11-30T10:28:37;25.75;;;14.43;;
39502;SDS011;26970;49.900;10.774;2022-11-30T10:31:15;25.95;;;14.13;;
39502;SDS011;26970;49.900;10.774;2022-11-30T10:33:46;30.17;;;14.85;;
39502;SDS011;26970;49.900;10.774;2022-11-30T10:38:57;27.42;;;14.90;;
39502;SDS011;26970;49.900;10.774;2022-11-30T10:42:00;30.88;;;15.70;;
39502;SDS011;26970;49.900;10.774;2022-11-30T10:44:23;30.08;;;14.88;;
39502;SDS011;26970;49.900;10.774;2022-11-30T10:46:57;25.98;;;14.23;;
39502;SDS011;26970;49.900;10.774;2022-11-30T10:49:30;27.40;;;14.20;;
39502;SDS011;26970;49.900;10.774;2022-11-30T10:51:58;29.20;;;16.35;;
39502;SDS011;26970;49.900;10.774;2022-11-30T10:54:29;29.10;;;15.95;;
39502;SDS011;26970;49.900;10.774;2022-11-30T10:56:57;30.55;;;15.82;;
39502;SDS011;26970;49.900;10.774;2022-11-30T10:59:47;33.30;;;14.48;;
39502;SDS011;26970;49.900;10.774;2022-11-30T11:05:17;30.10;;;15.43;;
39502;SDS011;26970;49.900;10.774;2022-11-30T11:08:28;30.50;;;14.10;;
39502;SDS011;26970;49.900;10.774;2022-11-30T11:10:43;26.33;;;13.65;;
39502;SDS011;26970;49.900;10.774;2022-11-30T11:13:18;30.52;;;14.82;;
39502;SDS011;26970;49.900;10.774;2022-11-30T11:15:59;30.98;;;14.68;;
39502;SDS011;26970;49.900;10.774;2022-11-30T11:18:27;32.05;;;15.57;;
39502;SDS011;26970;49.900;10.774;2022-11-30T11:21:01;26.85;;;14.10;;
39502;SDS011;26970;49.900;10.774;2022-11-30T11:23:41;31.88;;;15.18;;
39502;SDS011;26970;49.900;10.774;2022-11-30T11:26:16;31.30;;;14.93;;
39502;SDS011;26970;49.900;10.774;2022-11-30T11:28:48;27.83;;;14.68;;
39502;SDS011;26970;49.900;10.774;2022-11-30T11:31:30;27.45;;;12.90;;
39502;SDS011;26970;49.900;10.774;2022-11-30T11:34:26;30.80;;;14.15;;
39502;SDS011;26970;49.900;10.774;2022-11-30T11:39:41;26.63;;;14.32;;
39502;SDS011;26970;49.900;10.774;2022-11-30T11:42:11;27.38;;;14.50;;
39502;SDS011;26970;49.900;10.774;2022-11-30T11:44:41;28.85;;;15.27;;
39502;SDS011;26970;49.900;10.774;2022-11-30T11:47:13;27.70;;;14.98;;
39502;SDS011;26970;49.900;10.774;2022-11-30T11:49:50;27.35;;;13.80;;
39502;SDS011;26970;49.900;10.774;2022-11-30T11:52:27;27.55;;;14.45;;
39502;SDS011;26970;49.900;10.774;2022-11-30T11:55:00;28.70;;;13.57;;
39502;SDS011;26970;49.900;10.774;2022-11-30T11:58:02;32.40;;;13.80;;
39502;SDS011;26970;49.900;10.774;2022-11-30T12:00:24;24.58;;;12.25;;
39502;SDS011;26970;49.900;10.774;2022-11-30T12:05:52;23.67;;;12.18;;
39502;SDS011;26970;49.900;10.774;2022-11-30T12:13:38;25.55;;;12.88;;
39502;SDS011;26970;49.900;10.774;2022-11-30T12:16:15;25.13;;;12.82;;
39502;SDS011;26970;49.900;10.774;2022-11-30T12:29:56;24.00;;;11.88;;
39502;SDS011;26970;49.900;10.774;2022-11-30T12:51:51;22.00;;;12.05;;
39502;SDS011;26970;49.900;10.774;2022-11-30T12:54:33;20.55;;;10.98;;
39502;SDS011;26970;49.900;10.774;2022-11-30T12:57:18;22.95;;;11.10;;
39502;SDS011;26970;49.900;10.774;2022-11-30T13:00:00;24.20;;;11.95;;
39502;SDS011;26970;49.900;10.774;2022-11-30T13:02:44;22.25;;;11.40;;
39502;SDS011;26970;49.900;10.774;2022-11-30T13:05:34;23.10;;;11.43;;
39502;SDS011;26970;49.900;10.774;2022-11-30T13:11:14;26.20;;;11.77;;
39502;SDS011;26970;49.900;10.774;2022-11-30T13:13:51;26.30;;;12.20;;
39502;SDS011;26970;49.900;10.774;2022-11-30T13:16:19;19.55;;;11.00;;
39502;SDS011;26970;49.900;10.774;2022-11-30T13:18:51;22.45;;;11.57;;
39502;SDS011;26970;49.900;10.774;2022-11-30T13:21:30;23.50;;;11.32;;
39502;SDS011;26970;49.900;10.774;2022-11-30T13:26:35;20.58;;;11.45;;
39502;SDS011;26970;49.900;10.774;2022-11-30T13:31:56;23.23;;;11.90;;
39502;SDS011;26970;49.900;10.774;2022-11-30T13:34:29;18.95;;;10.00;;
39502;SDS011;26970;49.900;10.774;2022-11-30T13:39:48;20.40;;;10.60;;
39502;SDS011;26970;49.900;10.774;2022-11-30T13:42:37;20.00;;;10.45;;
39502;SDS011;26970;49.900;10.774;2022-11-30T13:47:36;24.80;;;12.57;;
39502;SDS011;26970;49.900;10.774;2022-11-30T13:50:19;23.75;;;11.57;;
39502;SDS011;26970;49.900;10.774;2022-11-30T14:03:14;25.02;;;11.32;;
39502;SDS011;26970;49.900;10.774;2022-11-30T14:05:50;21.52;;;11.85;;
39502;SDS011;26970;49.900;10.774;2022-11-30T14:10:49;22.40;;;11.45;;
39502;SDS011;26970;49.900;10.774;2022-11-30T14:18:28;23.98;;;12.18;;
39502;SDS011;26970;49.900;10.774;2022-11-30T14:23:59;22.88;;;12.07;;
39502;SDS011;26970;49.900;10.774;2022-11-30T14:26:42;24.52;;;12.45;;
39502;SDS011;26970;49.900;10.774;2022-11-30T14:29:12;24.77;;;11.87;;
39502;SDS011;26970;49.900;10.774;2022-11-30T14:37:22;21.83;;;11.45;;
39502;SDS011;26970;49.900;10.774;2022-11-30T14:39:53;27.25;;;12.20;;
39502;SDS011;26970;49.900;10.774;2022-11-30T14:42:23;25.40;;;12.75;;
39502;SDS011;26970;49.900;10.774;2022-11-30T14:44:53;22.45;;;12.20;;
39502;SDS011;26970;49.900;10.774;2022-11-30T14:47:21;27.02;;;13.05;;
39502;SDS011;26970;49.900;10.774;2022-11-30T14:49:51;26.42;;;12.85;;
39502;SDS011;26970;49.900;10.774;2022-11-30T14:58:11;25.42;;;13.23;;
39502;SDS011;26970;49.900;10.774;2022-11-30T15:00:42;26.33;;;12.68;;
39502;SDS011;26970;49.900;10.774;2022-11-30T15:06:03;24.85;;;12.90;;
39502;SDS011;26970;49.900;10.774;2022-11-30T15:08:40;23.20;;;12.75;;
39502;SDS011;26970;49.900;10.774;2022-11-30T15:11:14;22.75;;;11.73;;
39502;SDS011;26970;49.900;10.774;2022-11-30T15:13:43;26.23;;;13.65;;
39502;SDS011;26970;49.900;10.774;2022-11-30T15:16:27;22.40;;;12.13;;
39502;SDS011;26970;49.900;10.774;2022-11-30T15:25:00;25.17;;;13.10;;
39502;SDS011;26970;49.900;10.774;2022-11-30T15:27:44;22.65;;;12.77;;
39502;SDS011;26970;49.900;10.774;2022-11-30T15:30:38;26.20;;;14.68;;
39502;SDS011;26970;49.900;10.774;2022-11-30T15:33:27;26.35;;;13.35;;
39502;SDS011;26970;49.900;10.774;2022-11-30T15:36:36;29.10;;;13.77;;
39502;SDS011;26970;49.900;10.774;2022-11-30T15:39:40;24.42;;;13.70;;
39502;SDS011;26970;49.900;10.774;2022-11-30T15:45:27;25.60;;;13.07;;
39502;SDS011;26970;49.900;10.774;2022-11-30T15:48:03;25.88;;;14.18;;
39502;SDS011;26970;49.900;10.774;2022-11-30T15:51:22;26.85;;;12.85;;
39502;SDS011;26970;49.900;10.774;2022-11-30T15:54:03;23.77;;;12.50;;
39502;SDS011;26970;49.900;10.774;2022-11-30T15:56:32;25.40;;;13.63;;
39502;SDS011;26970;49.900;10.774;2022-11-30T16:02:22;27.02;;;13.52;;
39502;SDS011;26970;49.900;10.774;2022-11-30T16:08:29;24.42;;;13.30;;
39502;SDS011;26970;49.900;10.774;2022-11-30T16:11:29;25.77;;;13.98;;
39502;SDS011;26970;49.900;10.774;2022-11-30T16:14:27;27.30;;;13.90;;
39502;SDS011;26970;49.900;10.774;2022-11-30T16:17:18;29.05;;;14.60;;
39502;SDS011;26970;49.900;10.774;2022-11-30T16:19:59;26.85;;;14.68;;
39502;SDS011;26970;49.900;10.774;2022-11-30T16:22:31;23.65;;;13.50;;
39502;SDS011;26970;49.900;10.774;2022-11-30T16:25:00;28.08;;;15.18;;
39502;SDS011;26970;49.900;10.774;2022-11-30T16:27:38;24.63;;;13.85;;
39502;SDS011;26970;49.900;10.774;2022-11-30T16:30:24;23.88;;;14.20;;
39502;SDS011;26970;49.900;10.774;2022-11-30T16:32:54;22.75;;;13.68;;
39502;SDS011;26970;49.900;10.774;2022-11-30T16:35:21;23.10;;;12.70;;
39502;SDS011;26970;49.900;10.774;2022-11-30T16:37:51;24.90;;;14.15;;
39502;SDS011;26970;49.900;10.774;2022-11-30T16:43:01;23.40;;;13.48;;
39502;SDS011;26970;49.900;10.774;2022-11-30T16:45:39;26.10;;;13.52;;
39502;SDS011;26970;49.900;10.774;2022-11-30T16:51:00;23.50;;;13.10;;
39502;SDS011;26970;49.900;10.774;2022-11-30T16:54:30;25.83;;;14.25;;
39502;SDS011;26970;49.900;10.774;2022-11-30T16:57:17;23.67;;;12.75;;
39502;SDS011;26970;49.900;10.774;2022-11-30T17:08:44;26.48;;;15.88;;
39502;SDS011;26970;49.900;10.774;2022-11-30T17:11:40;24.30;;;14.30;;